Time;durP1;ratioP1;P1;durP2;ratioP2;P2;SDS_P1;SDS_P2;PMS_P1;PMS_P2;Temp;Humidity;BMP_temperature;BMP_pressure;BME280_temperature;BME280_humidity;BME280_pressure;Samples;Min_cycle;Max_cycle;Signal;HPM_P1;HPM_P2
2023/07/09 00:01:13;;;;;;;9.65;5.32;;;;;;;;;;5011507;28;20056;-80
2023/07/09 00:03:39;;;;;;;9.73;5.65;;;;;;;;;;4989065;28;20049;-81
2023/07/09 00:06:09;;;;;;;10.73;5.97;;;;;;;;;;4988333;28;20548;-78
2023/07/09 00:08:38;;;;;;;11.50;5.88;;;;;;;;;;5005040;28;20045;-81
2023/07/09 00:11:04;;;;;;;10.10;5.88;;;;;;;;;;5018280;28;20049;-82
2023/07/09 00:13:31;;;;;;;10.75;5.65;;;;;;;;;;5025536;28;20568;-81
2023/07/09 00:15:59;;;;;;;9.00;5.78;;;;;;;;;;5007220;28;20043;-81
2023/07/09 00:18:27;;;;;;;8.68;5.55;;;;;;;;;;5026560;28;20145;-82
2023/07/09 00:20:58;;;;;;;11.10;6.00;;;;;;;;;;5011930;28;20177;-80
2023/07/09 00:23:27;;;;;;;8.88;5.80;;;;;;;;;;5028824;28;20111;-80
2023/07/09 00:25:54;;;;;;;11.40;5.70;;;;;;;;;;5009487;28;20045;-82
2023/07/09 00:28:20;;;;;;;12.77;5.93;;;;;;;;;;5026892;28;20108;-82
2023/07/09 00:30:47;;;;;;;9.85;6.07;;;;;;;;;;4996174;28;20053;-80
2023/07/09 00:33:15;;;;;;;11.45;5.53;;;;;;;;;;5012595;28;20042;-81
2023/07/09 00:35:42;;;;;;;10.43;5.88;;;;;;;;;;5014004;28;20042;-80
2023/07/09 00:38:22;;;;;;;11.40;5.72;;;;;;;;;;4998714;28;20095;-80
2023/07/09 00:41:01;;;;;;;8.35;5.65;;;;;;;;;;5011284;28;20042;-81
2023/07/09 00:43:32;;;;;;;9.93;5.68;;;;;;;;;;5012298;28;20042;-79
2023/07/09 00:46:16;;;;;;;11.82;5.82;;;;;;;;;;5015308;28;20127;-81
2023/07/09 00:48:45;;;;;;;11.10;5.60;;;;;;;;;;5000824;28;20055;-80
2023/07/09 00:51:16;;;;;;;11.23;5.95;;;;;;;;;;5001619;28;20422;-80
2023/07/09 00:53:50;;;;;;;11.02;5.85;;;;;;;;;;5041795;28;20555;-80
2023/07/09 00:56:24;;;;;;;10.10;6.23;;;;;;;;;;5012206;28;20061;-81
2023/07/09 00:58:53;;;;;;;9.65;5.93;;;;;;;;;;5013452;28;20336;-81
2023/07/09 01:01:20;;;;;;;11.80;6.32;;;;;;;;;;5010913;28;20072;-81
2023/07/09 01:03:55;;;;;;;9.93;5.85;;;;;;;;;;5013079;28;20061;-80
2023/07/09 01:06:52;;;;;;;9.80;6.10;;;;;;;;;;5015555;28;20514;-81
2023/07/09 01:09:21;;;;;;;10.85;5.72;;;;;;;;;;5013688;28;20025;-80
2023/07/09 01:11:49;;;;;;;9.60;5.63;;;;;;;;;;5016221;28;20266;-81
2023/07/09 01:14:19;;;;;;;12.07;5.88;;;;;;;;;;5033321;28;20048;-82
2023/07/09 01:17:05;;;;;;;9.52;5.57;;;;;;;;;;5033133;28;20144;-80
2023/07/09 01:19:42;;;;;;;10.85;5.90;;;;;;;;;;5032708;28;20068;-81
2023/07/09 01:22:14;;;;;;;13.32;6.60;;;;;;;;;;5033125;28;20053;-81
2023/07/09 01:25:01;;;;;;;9.95;5.43;;;;;;;;;;5033809;28;20033;-81
2023/07/09 01:27:33;;;;;;;8.38;5.35;;;;;;;;;;5021208;28;20387;-80
2023/07/09 01:30:02;;;;;;;8.80;5.65;;;;;;;;;;5025045;28;20113;-80
2023/07/09 01:32:29;;;;;;;9.23;5.35;;;;;;;;;;5024020;28;20042;-81
2023/07/09 01:35:04;;;;;;;9.00;5.43;;;;;;;;;;5023199;28;20042;-81
2023/07/09 01:37:32;;;;;;;11.50;6.38;;;;;;;;;;5021816;28;20077;-81
2023/07/09 01:39:59;;;;;;;10.07;6.03;;;;;;;;;;5021405;28;20096;-81
2023/07/09 01:42:26;;;;;;;9.27;6.05;;;;;;;;;;5020678;28;20090;-81
2023/07/09 01:44:54;;;;;;;11.30;5.93;;;;;;;;;;5022183;28;20109;-81
2023/07/09 01:47:29;;;;;;;10.55;6.05;;;;;;;;;;5022463;28;20045;-80
2023/07/09 01:50:41;;;;;;;11.38;6.00;;;;;;;;;;5023568;28;20084;-81
2023/07/09 01:53:08;;;;;;;10.45;6.15;;;;;;;;;;5021868;28;20049;-80
2023/07/09 01:55:35;;;;;;;11.80;6.03;;;;;;;;;;5022379;28;20430;-79
2023/07/09 01:58:06;;;;;;;9.43;5.82;;;;;;;;;;5021414;28;20088;-79
2023/07/09 02:00:36;;;;;;;10.38;5.88;;;;;;;;;;5022278;28;20049;-80
2023/07/09 02:03:04;;;;;;;11.43;6.30;;;;;;;;;;5021572;28;20105;-81
2023/07/09 02:05:32;;;;;;;10.43;6.13;;;;;;;;;;5013446;28;20050;-80
2023/07/09 02:07:59;;;;;;;9.20;5.95;;;;;;;;;;5023922;28;20045;-82
2023/07/09 02:10:26;;;;;;;10.55;6.00;;;;;;;;;;5023772;28;20564;-81
2023/07/09 02:12:55;;;;;;;9.55;5.63;;;;;;;;;;5015631;28;20042;-81
2023/07/09 02:15:22;;;;;;;12.43;5.85;;;;;;;;;;5019203;28;20065;-80
2023/07/09 02:17:49;;;;;;;11.45;6.15;;;;;;;;;;5026253;28;20053;-80
2023/07/09 02:20:20;;;;;;;10.20;5.57;;;;;;;;;;5025024;28;20034;-80
2023/07/09 02:22:49;;;;;;;8.55;5.15;;;;;;;;;;5018142;28;20459;-80
2023/07/09 02:25:16;;;;;;;9.85;6.18;;;;;;;;;;5016221;28;20061;-80
2023/07/09 02:27:43;;;;;;;12.43;6.10;;;;;;;;;;5015228;28;20157;-81
2023/07/09 02:30:10;;;;;;;12.32;6.20;;;;;;;;;;4999190;28;20046;-81
2023/07/09 02:32:38;;;;;;;15.68;6.00;;;;;;;;;;4999028;28;20046;-80
2023/07/09 02:35:04;;;;;;;9.52;6.10;;;;;;;;;;4998109;28;20062;-80
2023/07/09 02:37:32;;;;;;;10.80;6.20;;;;;;;;;;4994945;28;20045;-81
2023/07/09 02:39:59;;;;;;;14.07;5.80;;;;;;;;;;4977866;28;20137;-81
2023/07/09 02:42:26;;;;;;;11.70;6.25;;;;;;;;;;4995033;28;20053;-81
2023/07/09 02:44:53;;;;;;;11.68;6.30;;;;;;;;;;5031791;28;20048;-80
2023/07/09 02:47:23;;;;;;;11.82;6.40;;;;;;;;;;4997882;28;20041;-81
2023/07/09 02:49:51;;;;;;;12.43;6.00;;;;;;;;;;4999793;28;20459;-80
2023/07/09 02:52:17;;;;;;;11.65;6.57;;;;;;;;;;5016918;28;20119;-80
2023/07/09 02:54:44;;;;;;;10.15;5.65;;;;;;;;;;4984067;28;20041;-80
2023/07/09 02:57:11;;;;;;;11.23;5.68;;;;;;;;;;5026772;28;20069;-81
2023/07/09 02:59:38;;;;;;;9.98;6.20;;;;;;;;;;5004893;28;20586;-80
2023/07/09 03:02:04;;;;;;;13.25;6.82;;;;;;;;;;5019083;28;20041;-79
2023/07/09 03:04:31;;;;;;;12.63;7.13;;;;;;;;;;5003271;28;20509;-80
2023/07/09 03:06:59;;;;;;;11.85;6.55;;;;;;;;;;5012093;28;20105;-81
2023/07/09 03:09:28;;;;;;;9.65;6.53;;;;;;;;;;5013036;28;20053;-81
2023/07/09 03:11:54;;;;;;;11.23;6.97;;;;;;;;;;5015040;28;20041;-80
2023/07/09 03:14:22;;;;;;;10.60;6.90;;;;;;;;;;4996170;28;20049;-80
2023/07/09 03:16:49;;;;;;;10.63;6.22;;;;;;;;;;5012203;28;20042;-80
2023/07/09 03:19:15;;;;;;;10.85;6.63;;;;;;;;;;4997471;28;20050;-80
2023/07/09 03:21:42;;;;;;;10.13;6.45;;;;;;;;;;4998785;28;20084;-80
2023/07/09 03:24:09;;;;;;;12.57;6.88;;;;;;;;;;5000377;28;20042;-81
2023/07/09 03:26:35;;;;;;;14.15;7.32;;;;;;;;;;5010331;28;20045;-80
2023/07/09 03:29:02;;;;;;;11.90;6.90;;;;;;;;;;5002830;28;20549;-80
2023/07/09 03:31:29;;;;;;;11.50;6.65;;;;;;;;;;5000424;28;20069;-80
2023/07/09 03:33:56;;;;;;;12.88;6.82;;;;;;;;;;5007361;28;20065;-80
2023/07/09 03:36:23;;;;;;;14.55;6.20;;;;;;;;;;4996074;28;20073;-81
2023/07/09 03:38:49;;;;;;;10.45;6.28;;;;;;;;;;4970416;28;20045;-81
2023/07/09 03:41:16;;;;;;;11.65;6.32;;;;;;;;;;5003941;28;20048;-80
2023/07/09 03:43:46;;;;;;;10.73;6.75;;;;;;;;;;5007430;28;20074;-80
2023/07/09 03:46:12;;;;;;;14.45;7.10;;;;;;;;;;4983608;28;20053;-80
2023/07/09 03:48:39;;;;;;;11.20;7.13;;;;;;;;;;5016246;28;20045;-82
2023/07/09 03:51:06;;;;;;;13.85;6.95;;;;;;;;;;4983006;28;20050;-80
2023/07/09 03:53:33;;;;;;;11.25;6.68;;;;;;;;;;5007645;28;20041;-80
2023/07/09 03:56:00;;;;;;;11.20;6.45;;;;;;;;;;5036627;28;20168;-79
2023/07/09 03:58:27;;;;;;;12.55;6.53;;;;;;;;;;5014681;28;20056;-80
2023/07/09 04:00:54;;;;;;;13.15;7.07;;;;;;;;;;5011415;28;20045;-83
2023/07/09 04:03:21;;;;;;;16.70;6.68;;;;;;;;;;5026528;28;20041;-81
2023/07/09 04:05:48;;;;;;;8.93;6.30;;;;;;;;;;5025437;28;20060;-81
2023/07/09 04:08:15;;;;;;;12.43;6.03;;;;;;;;;;5044413;28;20144;-82
2023/07/09 04:10:42;;;;;;;12.95;6.68;;;;;;;;;;5026348;28;20053;-80
2023/07/09 04:13:08;;;;;;;21.67;8.10;;;;;;;;;;5027861;28;20068;-81
2023/07/09 04:15:35;;;;;;;16.23;6.97;;;;;;;;;;5011266;28;20053;-82
2023/07/09 04:18:02;;;;;;;19.25;7.65;;;;;;;;;;5040289;28;20485;-81
2023/07/09 04:20:28;;;;;;;15.80;7.47;;;;;;;;;;5037271;28;20050;-81
2023/07/09 04:22:56;;;;;;;16.70;7.50;;;;;;;;;;5035903;28;20044;-82
2023/07/09 04:25:23;;;;;;;19.00;7.80;;;;;;;;;;5010115;28;20103;-80
2023/07/09 04:27:50;;;;;;;27.25;11.48;;;;;;;;;;5018729;28;20077;-82
2023/07/09 04:33:29;;;;;;;37.65;15.52;;;;;;;;;;5037021;28;20067;-80
2023/07/09 04:35:59;;;;;;;41.60;15.75;;;;;;;;;;5046868;28;20047;-79
2023/07/09 04:38:27;;;;;;;32.47;13.45;;;;;;;;;;5052928;28;20053;-79
2023/07/09 04:40:53;;;;;;;39.22;13.07;;;;;;;;;;5030119;28;23037;-80
2023/07/09 04:43:20;;;;;;;32.83;11.73;;;;;;;;;;5051143;28;20052;-80
2023/07/09 04:45:47;;;;;;;26.63;11.32;;;;;;;;;;5021767;28;20072;-79
2023/07/09 04:48:14;;;;;;;48.92;16.27;;;;;;;;;;5039505;28;20060;-80
2023/07/09 04:50:40;;;;;;;50.00;17.23;;;;;;;;;;5025088;28;20072;-79
2023/07/09 04:53:07;;;;;;;45.47;14.18;;;;;;;;;;5013444;28;20172;-80
2023/07/09 04:55:34;;;;;;;29.23;10.10;;;;;;;;;;5005742;28;20502;-79
2023/07/09 04:58:00;;;;;;;21.73;8.75;;;;;;;;;;5020914;28;20369;-80
2023/07/09 05:00:27;;;;;;;38.38;7.97;;;;;;;;;;5011027;28;20076;-79
2023/07/09 05:02:54;;;;;;;15.10;5.10;;;;;;;;;;5028520;28;20079;-81
2023/07/09 05:05:21;;;;;;;10.57;6.40;;;;;;;;;;5024005;28;20045;-81
2023/07/09 05:07:48;;;;;;;16.25;6.40;;;;;;;;;;5052315;28;20040;-81
2023/07/09 05:10:14;;;;;;;28.38;6.32;;;;;;;;;;5018485;28;20118;-79
2023/07/09 05:12:48;;;;;;;40.95;6.40;;;;;;;;;;5024718;28;20109;-79
2023/07/09 05:15:15;;;;;;;22.83;6.07;;;;;;;;;;5026790;28;20045;-80
2023/07/09 05:17:41;;;;;;;23.08;5.80;;;;;;;;;;5038376;28;20099;-81
2023/07/09 05:20:08;;;;;;;11.23;4.97;;;;;;;;;;5020753;28;20080;-79
2023/07/09 05:22:35;;;;;;;19.33;4.85;;;;;;;;;;5021728;28;20383;-79
2023/07/09 05:25:01;;;;;;;50.17;6.60;;;;;;;;;;5019625;28;20053;-80
2023/07/09 05:27:28;;;;;;;61.83;6.05;;;;;;;;;;5031563;28;20049;-80
2023/07/09 05:29:55;;;;;;;17.25;5.10;;;;;;;;;;4998524;28;20034;-80
2023/07/09 05:32:21;;;;;;;24.92;4.88;;;;;;;;;;5003175;28;20046;-80
2023/07/09 05:34:48;;;;;;;7.65;4.25;;;;;;;;;;5023654;28;20054;-80
2023/07/09 05:37:15;;;;;;;7.97;4.63;;;;;;;;;;5009066;28;20154;-80
2023/07/09 05:39:41;;;;;;;44.03;5.45;;;;;;;;;;5025330;28;20048;-81
2023/07/09 05:42:08;;;;;;;13.52;4.70;;;;;;;;;;5011179;28;20042;-81
2023/07/09 05:44:34;;;;;;;9.07;4.53;;;;;;;;;;5005834;28;20045;-81
2023/07/09 05:47:01;;;;;;;39.00;6.00;;;;;;;;;;5028852;28;20121;-81
2023/07/09 05:49:27;;;;;;;35.20;4.85;;;;;;;;;;5012543;28;20052;-80
2023/07/09 05:51:54;;;;;;;12.38;4.30;;;;;;;;;;5014243;28;20096;-81
2023/07/09 05:54:21;;;;;;;31.88;4.50;;;;;;;;;;5002649;28;20110;-80
2023/07/09 05:56:47;;;;;;;23.55;4.50;;;;;;;;;;5024797;28;20042;-82
2023/07/09 05:59:14;;;;;;;30.30;4.88;;;;;;;;;;5023784;28;20105;-81
2023/07/09 06:01:41;;;;;;;57.28;5.28;;;;;;;;;;5025104;28;20065;-81
2023/07/09 06:04:07;;;;;;;23.38;4.57;;;;;;;;;;5022705;28;20625;-81
2023/07/09 06:06:34;;;;;;;138.77;9.27;;;;;;;;;;5006727;28;20061;-80
2023/07/09 06:09:01;;;;;;;60.53;5.38;;;;;;;;;;5007782;28;20462;-74
2023/07/09 06:11:27;;;;;;;18.98;4.47;;;;;;;;;;5003367;28;20493;-74
2023/07/09 06:13:54;;;;;;;23.77;5.20;;;;;;;;;;5003469;28;20089;-74
2023/07/09 06:16:21;;;;;;;27.95;4.13;;;;;;;;;;4996902;28;20038;-74
2023/07/09 06:18:47;;;;;;;37.03;4.68;;;;;;;;;;5012795;28;20064;-74
2023/07/09 06:21:14;;;;;;;21.65;4.63;;;;;;;;;;5001838;28;20038;-74
2023/07/09 06:23:41;;;;;;;56.15;4.97;;;;;;;;;;5005446;28;20061;-81
2023/07/09 06:26:07;;;;;;;42.05;4.78;;;;;;;;;;5009447;28;20110;-82
2023/07/09 06:28:34;;;;;;;29.73;4.28;;;;;;;;;;5009675;28;20063;-83
2023/07/09 06:31:01;;;;;;;21.48;4.15;;;;;;;;;;4999806;28;20125;-82
2023/07/09 06:33:28;;;;;;;15.05;4.18;;;;;;;;;;4999264;28;20676;-82
2023/07/09 06:35:56;;;;;;;35.08;4.45;;;;;;;;;;4998690;28;20046;-83
2023/07/09 06:38:23;;;;;;;22.95;4.22;;;;;;;;;;4997397;28;20063;-82
2023/07/09 06:40:50;;;;;;;47.40;4.38;;;;;;;;;;4974812;28;20063;-83
2023/07/09 06:43:17;;;;;;;36.47;4.80;;;;;;;;;;4990872;28;20065;-81
2023/07/09 06:45:48;;;;;;;34.08;3.80;;;;;;;;;;4996391;28;20377;-83
2023/07/09 06:48:14;;;;;;;12.82;3.70;;;;;;;;;;5025625;28;20061;-81
2023/07/09 06:50:41;;;;;;;46.95;4.60;;;;;;;;;;5018196;28;20041;-81
2023/07/09 06:53:09;;;;;;;34.80;4.00;;;;;;;;;;5000090;28;20073;-82
2023/07/09 06:55:36;;;;;;;45.42;5.35;;;;;;;;;;5005422;28;20383;-81
2023/07/09 06:58:02;;;;;;;35.45;4.13;;;;;;;;;;5007210;28;20129;-82
2023/07/09 07:00:29;;;;;;;37.88;4.57;;;;;;;;;;5010910;28;20072;-82
2023/07/09 07:02:55;;;;;;;29.98;4.32;;;;;;;;;;5029206;28;20046;-80
2023/07/09 07:05:23;;;;;;;38.45;4.50;;;;;;;;;;5013639;28;20162;-80
2023/07/09 07:07:49;;;;;;;42.00;4.40;;;;;;;;;;5017421;28;20049;-79
2023/07/09 07:10:16;;;;;;;9.80;3.25;;;;;;;;;;5012995;28;20340;-78
2023/07/09 07:12:44;;;;;;;62.35;5.97;;;;;;;;;;5021294;28;20064;-80
2023/07/09 07:15:13;;;;;;;11.55;3.40;;;;;;;;;;5036042;28;20057;-80
2023/07/09 07:17:39;;;;;;;19.05;3.75;;;;;;;;;;5032407;28;20571;-80
2023/07/09 07:20:07;;;;;;;56.63;4.28;;;;;;;;;;5016383;28;20040;-80
2023/07/09 07:22:33;;;;;;;10.50;3.05;;;;;;;;;;5005348;28;20396;-81
2023/07/09 07:25:00;;;;;;;16.80;5.72;;;;;;;;;;5019025;28;20049;-81
2023/07/09 07:27:26;;;;;;;71.40;5.65;;;;;;;;;;5011721;28;20679;-73
2023/07/09 07:29:54;;;;;;;29.38;4.85;;;;;;;;;;5025760;28;20117;-80
2023/07/09 07:32:20;;;;;;;16.30;3.47;;;;;;;;;;5028210;28;20072;-80
2023/07/09 07:34:49;;;;;;;51.20;4.20;;;;;;;;;;5020777;28;20063;-79
2023/07/09 07:37:19;;;;;;;16.58;3.22;;;;;;;;;;5039046;28;20041;-80
2023/07/09 07:39:49;;;;;;;10.68;3.28;;;;;;;;;;5023346;28;20104;-80
2023/07/09 07:42:16;;;;;;;36.85;3.95;;;;;;;;;;5006749;28;20132;-80
2023/07/09 07:44:43;;;;;;;8.27;4.40;;;;;;;;;;5001972;28;20073;-80
2023/07/09 07:47:11;;;;;;;4.63;3.20;;;;;;;;;;5000017;28;20041;-79
2023/07/09 08:05:25;;;;;;;;;;;;;;;;;;;;;
2023/07/09 08:08:56;;;;;;;;;;;;;;;;;;;;;
2023/07/09 08:14:52;;;;;;;8.40;3.00;;;;;;;;;;4782980;29;20038;-79
2023/07/09 08:21:42;;;;;;;4.88;2.85;;;;;;;;;;4775955;29;20057;-80
2023/07/09 08:32:13;;;;;;;3.85;2.58;;;;;;;;;;4783818;29;20630;-80
2023/07/09 08:35:15;;;;;;;;;;;;;;;;;;;;;
2023/07/09 08:50:19;;;;;;;2.80;2.00;;;;;;;;;;4772291;29;20891;-80
2023/07/09 09:18:50;;;;;;;3.78;2.50;;;;;;;;;;5056165;27;1267800;-80
2023/07/09 09:21:23;;;;;;;5.90;3.08;;;;;;;;;;5076761;28;20053;-80
2023/07/09 09:23:52;;;;;;;4.90;2.90;;;;;;;;;;5073974;28;20052;-79
2023/07/09 09:26:22;;;;;;;3.30;2.50;;;;;;;;;;5077831;28;20139;-79
2023/07/09 09:28:49;;;;;;;3.97;2.47;;;;;;;;;;5083529;28;20063;-79
2023/07/09 09:31:16;;;;;;;4.25;2.67;;;;;;;;;;5092136;28;20044;-80
2023/07/09 09:33:45;;;;;;;4.07;2.67;;;;;;;;;;5094668;28;20133;-80
2023/07/09 09:36:29;;;;;;;4.20;2.60;;;;;;;;;;5086200;28;20075;-80
2023/07/09 09:39:01;;;;;;;4.03;2.63;;;;;;;;;;5079824;28;20068;-78
2023/07/09 09:41:34;;;;;;;4.07;2.53;;;;;;;;;;5081609;28;20611;-79
2023/07/09 09:44:02;;;;;;;3.08;2.42;;;;;;;;;;5081313;28;20077;-78
2023/07/09 09:46:31;;;;;;;3.58;2.50;;;;;;;;;;5081082;28;20040;-80
2023/07/09 09:49:01;;;;;;;4.40;2.40;;;;;;;;;;5073456;28;20465;-79
2023/07/09 09:51:28;;;;;;;3.65;2.40;;;;;;;;;;5071888;28;20045;-80
2023/07/09 09:53:57;;;;;;;3.78;2.60;;;;;;;;;;5074006;28;20041;-80
2023/07/09 09:56:33;;;;;;;16.48;3.00;;;;;;;;;;5072705;28;20055;-77
2023/07/09 09:59:00;;;;;;;5.05;2.95;;;;;;;;;;5090352;28;20063;-77
2023/07/09 10:01:29;;;;;;;6.22;2.65;;;;;;;;;;5078648;28;20076;-79
2023/07/09 10:03:57;;;;;;;3.60;2.72;;;;;;;;;;5086918;28;20056;-80
2023/07/09 10:06:45;;;;;;;4.40;3.10;;;;;;;;;;5086896;28;20056;-77
2023/07/09 10:09:17;;;;;;;5.18;2.95;;;;;;;;;;5093818;28;20114;-80
2023/07/09 10:11:46;;;;;;;4.38;3.17;;;;;;;;;;5093495;28;20055;-79
2023/07/09 10:14:19;;;;;;;4.22;3.00;;;;;;;;;;5081918;28;20569;-78
2023/07/09 10:16:48;;;;;;;7.28;3.20;;;;;;;;;;5072656;28;20347;-77
2023/07/09 10:19:18;;;;;;;3.30;2.88;;;;;;;;;;5059393;28;20056;-78
2023/07/09 10:22:00;;;;;;;5.40;2.92;;;;;;;;;;5055728;28;20045;-78
2023/07/09 10:24:29;;;;;;;3.95;2.85;;;;;;;;;;5057503;28;20094;-78
2023/07/09 10:27:02;;;;;;;3.88;2.88;;;;;;;;;;5059556;28;20101;-79
2023/07/09 10:29:46;;;;;;;3.85;2.95;;;;;;;;;;5044405;28;20487;-79
2023/07/09 10:32:34;;;;;;;5.57;3.50;;;;;;;;;;5053318;28;20104;-79
2023/07/09 10:35:07;;;;;;;4.65;3.08;;;;;;;;;;5056546;28;20059;-78
2023/07/09 10:37:42;;;;;;;4.47;3.08;;;;;;;;;;5054326;28;20045;-79
2023/07/09 10:40:11;;;;;;;4.38;3.22;;;;;;;;;;5037871;28;20053;-78
2023/07/09 10:42:47;;;;;;;4.07;3.22;;;;;;;;;;5056636;28;20060;-79
2023/07/09 10:45:16;;;;;;;5.28;3.58;;;;;;;;;;5072831;28;20044;-79
2023/07/09 10:47:44;;;;;;;3.75;3.10;;;;;;;;;;5078008;28;20746;-79
2023/07/09 10:50:22;;;;;;;3.88;2.72;;;;;;;;;;5078525;28;20432;-78
2023/07/09 10:52:51;;;;;;;4.70;3.40;;;;;;;;;;5075217;28;20048;-78
2023/07/09 10:55:22;;;;;;;5.75;3.25;;;;;;;;;;5073421;28;20056;-77
2023/07/09 10:57:52;;;;;;;5.18;3.30;;;;;;;;;;5070740;28;20052;-79
2023/07/09 11:00:20;;;;;;;4.47;3.30;;;;;;;;;;5065644;28;20044;-78
2023/07/09 11:02:49;;;;;;;6.78;3.45;;;;;;;;;;5064003;28;20091;-77
2023/07/09 11:05:16;;;;;;;4.35;3.42;;;;;;;;;;5064767;28;20572;-79
2023/07/09 11:07:45;;;;;;;4.68;3.17;;;;;;;;;;5065825;28;20083;-77
2023/07/09 11:10:27;;;;;;;6.05;3.08;;;;;;;;;;5070120;28;20088;-78
2023/07/09 11:13:01;;;;;;;4.50;3.33;;;;;;;;;;5071252;28;21377;-78
2023/07/09 11:15:32;;;;;;;4.50;3.40;;;;;;;;;;5067482;28;20102;-78
2023/07/09 11:17:59;;;;;;;4.35;3.30;;;;;;;;;;5067888;28;20074;-79
2023/07/09 11:20:36;;;;;;;4.28;3.58;;;;;;;;;;5077425;28;20054;-79
2023/07/09 11:23:22;;;;;;;5.07;3.40;;;;;;;;;;5066054;28;20044;-78
2023/07/09 11:26:00;;;;;;;5.25;3.55;;;;;;;;;;5066663;28;20056;-80
2023/07/09 11:28:38;;;;;;;4.60;3.50;;;;;;;;;;5064775;28;20044;-79
2023/07/09 11:31:07;;;;;;;5.88;3.60;;;;;;;;;;5065809;28;20804;-79
2023/07/09 11:33:44;;;;;;;4.63;3.45;;;;;;;;;;5068641;28;20079;-79
2023/07/09 11:36:12;;;;;;;4.25;3.53;;;;;;;;;;5072903;28;20199;-80
2023/07/09 11:38:43;;;;;;;4.55;3.50;;;;;;;;;;5075007;28;20104;-77
2023/07/09 11:41:28;;;;;;;4.60;3.38;;;;;;;;;;5077025;28;20047;-80
2023/07/09 11:44:03;;;;;;;4.32;3.35;;;;;;;;;;5077135;28;20524;-79
2023/07/09 11:46:30;;;;;;;4.22;3.53;;;;;;;;;;5064514;28;20024;-79
2023/07/09 11:48:57;;;;;;;5.05;3.47;;;;;;;;;;5061652;28;20526;-77
2023/07/09 11:51:40;;;;;;;4.18;3.42;;;;;;;;;;5062203;28;20392;-77
2023/07/09 11:54:10;;;;;;;5.60;3.58;;;;;;;;;;5065009;28;20568;-81
2023/07/09 11:56:37;;;;;;;4.32;3.58;;;;;;;;;;5072229;28;20048;-79
2023/07/09 11:59:04;;;;;;;5.50;3.80;;;;;;;;;;5063973;28;20055;-79
2023/07/09 12:01:36;;;;;;;7.53;3.75;;;;;;;;;;5074057;28;20058;-78
2023/07/09 12:04:03;;;;;;;5.60;3.40;;;;;;;;;;5081096;28;20078;-79
2023/07/09 12:06:31;;;;;;;6.95;3.92;;;;;;;;;;5080490;28;20079;-78
2023/07/09 12:08:58;;;;;;;4.03;3.33;;;;;;;;;;5081568;28;20075;-79
2023/07/09 12:11:26;;;;;;;4.97;3.60;;;;;;;;;;5084294;28;20048;-78
2023/07/09 12:13:53;;;;;;;4.65;3.88;;;;;;;;;;5071028;28;20052;-76
2023/07/09 12:16:25;;;;;;;5.15;3.75;;;;;;;;;;5064941;28;20136;-79
2023/07/09 12:18:52;;;;;;;4.15;3.70;;;;;;;;;;5066527;28;20063;-76
2023/07/09 12:21:18;;;;;;;4.40;3.70;;;;;;;;;;5065404;28;20157;-79
2023/07/09 12:23:45;;;;;;;4.80;3.85;;;;;;;;;;5077608;28;20064;-77
2023/07/09 12:26:14;;;;;;;4.13;3.40;;;;;;;;;;5075477;28;20059;-80
2023/07/09 12:28:41;;;;;;;7.95;3.97;;;;;;;;;;5059245;28;20044;-79
2023/07/09 12:31:13;;;;;;;5.75;3.80;;;;;;;;;;5053023;28;20059;-77
2023/07/09 12:33:46;;;;;;;4.70;3.75;;;;;;;;;;5054160;28;20059;-76
2023/07/09 12:36:12;;;;;;;4.97;3.90;;;;;;;;;;5034566;28;20128;-78
2023/07/09 12:38:43;;;;;;;7.32;3.60;;;;;;;;;;5048437;28;20107;-79
2023/07/09 12:41:19;;;;;;;4.65;3.88;;;;;;;;;;5053449;28;20052;-77
2023/07/09 12:43:46;;;;;;;4.35;3.70;;;;;;;;;;5056821;28;20147;-77
2023/07/09 12:46:12;;;;;;;6.10;3.58;;;;;;;;;;5072950;28;20059;-78
2023/07/09 12:48:40;;;;;;;4.25;3.58;;;;;;;;;;5070854;28;20170;-78
2023/07/09 12:51:07;;;;;;;4.85;3.85;;;;;;;;;;5073496;28;20067;-79
2023/07/09 12:53:35;;;;;;;4.68;3.97;;;;;;;;;;5069880;28;20643;-78
2023/07/09 12:56:02;;;;;;;6.43;4.28;;;;;;;;;;5071607;28;20532;-77
2023/07/09 12:58:32;;;;;;;5.13;3.67;;;;;;;;;;5069719;28;20060;-77
2023/07/09 13:01:04;;;;;;;4.22;3.60;;;;;;;;;;5066386;28;20544;-77
2023/07/09 13:03:31;;;;;;;4.35;3.92;;;;;;;;;;5069207;28;20401;-78
2023/07/09 13:06:18;;;;;;;5.20;3.92;;;;;;;;;;5069008;28;20116;-78
2023/07/09 13:08:45;;;;;;;6.22;3.83;;;;;;;;;;5069747;28;20096;-77
2023/07/09 13:11:18;;;;;;;5.43;4.15;;;;;;;;;;5071390;28;20052;-78
2023/07/09 13:13:59;;;;;;;5.30;4.13;;;;;;;;;;5069007;28;20521;-79
2023/07/09 13:16:26;;;;;;;6.93;4.00;;;;;;;;;;5063192;28;20138;-79
2023/07/09 13:18:53;;;;;;;6.07;3.70;;;;;;;;;;5065458;28;20090;-78
2023/07/09 13:21:20;;;;;;;4.82;4.05;;;;;;;;;;5064003;28;20063;-78
2023/07/09 13:23:48;;;;;;;6.95;3.97;;;;;;;;;;5066197;28;20048;-77
2023/07/09 13:26:15;;;;;;;4.18;3.58;;;;;;;;;;5064932;28;20044;-79
2023/07/09 13:28:43;;;;;;;5.20;4.10;;;;;;;;;;5060042;28;20056;-78
2023/07/09 13:31:09;;;;;;;5.47;4.05;;;;;;;;;;5049372;28;20109;-78
2023/07/09 13:33:36;;;;;;;5.20;3.92;;;;;;;;;;5048284;28;20060;-78
2023/07/09 13:36:03;;;;;;;4.55;3.92;;;;;;;;;;5048371;28;20045;-77
2023/07/09 13:38:30;;;;;;;4.45;3.97;;;;;;;;;;5045452;28;20418;-78
2023/07/09 13:40:59;;;;;;;5.32;4.10;;;;;;;;;;5033784;28;20049;-78
2023/07/09 13:43:33;;;;;;;4.88;3.92;;;;;;;;;;5057766;28;20128;-79
2023/07/09 13:46:03;;;;;;;5.45;3.80;;;;;;;;;;5056896;28;20044;-79
2023/07/09 13:48:30;;;;;;;4.97;3.90;;;;;;;;;;5084307;28;20058;-77
2023/07/09 13:50:58;;;;;;;4.28;3.60;;;;;;;;;;5087433;28;20044;-79
2023/07/09 13:53:28;;;;;;;4.82;3.55;;;;;;;;;;5085810;28;20070;-78
2023/07/09 13:55:55;;;;;;;5.07;3.80;;;;;;;;;;5075199;28;20417;-76
2023/07/09 13:58:23;;;;;;;9.75;3.58;;;;;;;;;;5078460;28;20105;-79
2023/07/09 14:00:54;;;;;;;6.65;3.45;;;;;;;;;;5079009;28;20052;-78
2023/07/09 14:03:22;;;;;;;4.38;3.08;;;;;;;;;;5078713;28;20049;-78
2023/07/09 14:05:49;;;;;;;6.43;3.75;;;;;;;;;;5080064;28;20036;-75
2023/07/09 14:08:16;;;;;;;4.15;3.50;;;;;;;;;;5084045;28;20078;-79
2023/07/09 14:10:44;;;;;;;4.97;3.60;;;;;;;;;;5078787;28;20052;-79
2023/07/09 14:13:17;;;;;;;4.05;3.60;;;;;;;;;;5077637;28;20119;-78
2023/07/09 14:15:44;;;;;;;5.77;3.70;;;;;;;;;;5076818;28;20048;-78
2023/07/09 14:18:15;;;;;;;4.32;3.40;;;;;;;;;;5076683;28;20639;-78
2023/07/09 14:20:41;;;;;;;4.32;3.60;;;;;;;;;;5074214;28;20122;-77
2023/07/09 14:23:11;;;;;;;4.72;3.65;;;;;;;;;;5075759;28;20036;-78
2023/07/09 14:25:39;;;;;;;4.82;3.75;;;;;;;;;;5061415;28;20119;-77
2023/07/09 14:28:16;;;;;;;4.20;3.80;;;;;;;;;;5061457;28;20537;-76
2023/07/09 14:30:45;;;;;;;3.55;3.25;;;;;;;;;;5055092;28;20072;-76
2023/07/09 14:33:15;;;;;;;5.10;3.80;;;;;;;;;;5053428;28;20045;-78
2023/07/09 14:35:42;;;;;;;4.45;3.40;;;;;;;;;;5052280;28;20041;-78
2023/07/09 14:38:16;;;;;;;6.30;3.85;;;;;;;;;;5051951;28;20049;-77
2023/07/09 14:40:44;;;;;;;4.88;3.90;;;;;;;;;;5037124;28;20521;-78
2023/07/09 14:43:11;;;;;;;5.50;3.63;;;;;;;;;;5050310;28;20051;-75
2023/07/09 14:45:38;;;;;;;4.47;3.63;;;;;;;;;;5052619;28;20055;-78
2023/07/09 14:48:10;;;;;;;5.53;3.72;;;;;;;;;;5055292;28;20061;-78
2023/07/09 14:50:37;;;;;;;4.25;3.63;;;;;;;;;;5053986;28;20084;-77
2023/07/09 14:53:08;;;;;;;5.00;3.72;;;;;;;;;;5054681;28;20044;-75
2023/07/09 14:55:52;;;;;;;6.05;3.85;;;;;;;;;;5053507;28;20127;-78
2023/07/09 14:58:23;;;;;;;5.15;3.80;;;;;;;;;;5053214;28;20052;-76
2023/07/09 15:00:49;;;;;;;4.47;3.47;;;;;;;;;;5072401;28;20070;-78
2023/07/09 15:03:20;;;;;;;5.45;3.88;;;;;;;;;;5071835;28;20135;-79
2023/07/09 15:05:47;;;;;;;6.03;3.50;;;;;;;;;;5073231;28;20056;-76
2023/07/09 15:08:16;;;;;;;6.40;3.97;;;;;;;;;;5074036;28;20044;-77
2023/07/09 15:10:43;;;;;;;7.05;3.75;;;;;;;;;;5073506;28;20098;-77
2023/07/09 15:13:18;;;;;;;5.60;3.88;;;;;;;;;;5073123;28;20182;-76
2023/07/09 15:15:45;;;;;;;6.53;4.10;;;;;;;;;;5070100;28;20070;-77
2023/07/09 15:18:13;;;;;;;7.18;3.67;;;;;;;;;;5070827;28;20048;-77
2023/07/09 15:20:42;;;;;;;6.00;3.63;;;;;;;;;;5070648;28;20062;-80
2023/07/09 15:23:10;;;;;;;5.68;3.72;;;;;;;;;;5070876;28;20055;-79
2023/07/09 15:25:37;;;;;;;5.85;3.75;;;;;;;;;;5074653;28;20055;-78
2023/07/09 15:28:03;;;;;;;6.95;3.40;;;;;;;;;;5062344;28;20074;-80
2023/07/09 15:30:31;;;;;;;4.20;3.33;;;;;;;;;;5041199;28;20143;-80
2023/07/09 15:32:58;;;;;;;5.28;3.60;;;;;;;;;;5075904;28;20360;-80
2023/07/09 15:35:32;;;;;;;;;;;;;;;;;;5076538;28;20107;-81
2023/07/09 15:37:59;;;;;;;4.53;3.30;;;;;;;;;;5075842;28;20421;-78
2023/07/09 15:40:29;;;;;;;4.47;3.67;;;;;;;;;;5074919;28;20055;-79
2023/07/09 15:42:58;;;;;;;5.57;3.72;;;;;;;;;;5075837;28;20041;-78
2023/07/09 15:45:25;;;;;;;5.10;3.85;;;;;;;;;;5057508;28;20144;-81
2023/07/09 15:47:51;;;;;;;4.88;3.80;;;;;;;;;;5053349;28;20083;-80
2023/07/09 15:50:18;;;;;;;6.53;3.70;;;;;;;;;;5051979;28;20053;-81
2023/07/09 15:52:48;;;;;;;4.93;3.25;;;;;;;;;;5074140;28;20100;-80
2023/07/09 15:55:16;;;;;;;6.75;3.95;;;;;;;;;;5077100;28;20454;-79
2023/07/09 15:57:47;;;;;;;7.75;3.50;;;;;;;;;;5063264;28;20123;-79
2023/07/09 16:00:25;;;;;;;5.55;3.70;;;;;;;;;;5056050;28;20048;-80
2023/07/09 16:02:52;;;;;;;5.95;3.60;;;;;;;;;;5055252;28;20059;-79
2023/07/09 16:05:37;;;;;;;5.90;3.33;;;;;;;;;;5052059;28;20431;-80
2023/07/09 16:08:04;;;;;;;5.45;3.47;;;;;;;;;;5052610;28;20045;-78